createdAt,value
2022-11-24T00:01:08.552Z,8.43
2022-11-24T00:03:35.606Z,9.80
2022-11-24T00:06:04.559Z,10.65
2022-11-24T00:08:31.551Z,3.17
2022-11-24T00:11:06.497Z,5.82
2022-11-24T00:13:33.878Z,8.88
2022-11-24T00:16:31.045Z,9.85
2022-11-24T00:18:59.469Z,11.40
2022-11-24T00:21:27.706Z,4.65
2022-11-24T00:23:54.555Z,7.20
2022-11-24T00:26:23.567Z,5.30
2022-11-24T00:28:51.677Z,5.10
2022-11-24T00:31:19.777Z,4.82
2022-11-24T00:33:48.064Z,4.00
2022-11-24T00:36:15.777Z,1.95
2022-11-24T00:38:43.011Z,9.63
2022-11-24T00:41:10.124Z,5.35
2022-11-24T00:43:36.971Z,5.30
2022-11-24T00:46:04.211Z,5.30
2022-11-24T00:48:31.424Z,8.10
2022-11-24T00:51:02.620Z,6.10
2022-11-24T00:53:30.229Z,4.95
2022-11-24T00:55:57.032Z,4.22
2022-11-24T00:58:24.778Z,4.88
2022-11-24T01:00:51.736Z,6.30
2022-11-24T01:03:20.279Z,6.13
2022-11-24T01:05:47.230Z,6.82
2022-11-24T01:08:14.889Z,7.80
2022-11-24T01:10:41.667Z,1.77
2022-11-24T01:13:08.479Z,3.47
2022-11-24T01:15:36.272Z,4.40
2022-11-24T01:18:04.658Z,4.07
2022-11-24T01:20:32.113Z,4.53
2022-11-24T01:22:58.956Z,5.40
2022-11-24T01:25:25.638Z,7.38
2022-11-24T01:27:52.749Z,9.23
2022-11-24T01:30:19.547Z,3.20
2022-11-24T01:32:46.279Z,5.53
2022-11-24T01:35:13.035Z,3.53
2022-11-24T01:37:39.806Z,6.63
2022-11-24T01:40:07.328Z,4.40
2022-11-24T01:42:43.778Z,5.43
2022-11-24T01:45:36.659Z,3.65
2022-11-24T01:48:05.829Z,3.20
2022-11-24T01:50:33.789Z,2.72
2022-11-24T01:53:00.646Z,6.32
2022-11-24T01:55:31.012Z,5.15
2022-11-24T01:58:05.868Z,7.10
2022-11-24T02:00:34.001Z,2.95
2022-11-24T02:03:00.964Z,6.78
2022-11-24T02:06:04.265Z,4.43
2022-11-24T02:08:40.550Z,3.22
2022-11-24T02:11:07.561Z,4.93
2022-11-24T02:13:37.374Z,5.90
2022-11-24T02:16:05.859Z,3.17
2022-11-24T02:18:32.717Z,7.38
2022-11-24T02:21:00.202Z,4.88
2022-11-24T02:23:42.176Z,3.20
2022-11-24T02:26:31.376Z,4.07
2022-11-24T02:28:58.228Z,4.57
2022-11-24T02:31:25.349Z,3.47
2022-11-24T02:33:52.214Z,4.13
2022-11-24T02:36:18.969Z,3.92
2022-11-24T02:38:45.665Z,8.15
2022-11-24T02:41:15.873Z,8.48
2022-11-24T02:43:48.430Z,4.85
2022-11-24T02:46:15.191Z,6.00
2022-11-24T02:48:42.377Z,9.07
2022-11-24T02:51:09.360Z,7.20
2022-11-24T02:53:36.076Z,4.90
2022-11-24T02:56:02.901Z,8.25
2022-11-24T02:58:29.721Z,5.97
2022-11-24T03:00:57.350Z,9.13
2022-11-24T03:03:24.671Z,7.85
2022-11-24T03:05:51.445Z,5.65
2022-11-24T03:08:18.212Z,8.57
2022-11-24T03:10:45.255Z,4.57
2022-11-24T03:13:12.154Z,6.18
2022-11-24T03:15:38.945Z,11.85
2022-11-24T03:18:07.098Z,8.05
2022-11-24T03:20:33.933Z,7.68
2022-11-24T03:23:00.616Z,7.95
2022-11-24T03:25:27.383Z,5.93
2022-11-24T03:27:56.488Z,9.50
2022-11-24T03:30:23.287Z,7.07
2022-11-24T03:32:52.570Z,8.25
2022-11-24T03:35:20.762Z,11.02
2022-11-24T03:37:47.529Z,11.60
2022-11-24T03:40:14.429Z,10.50
2022-11-24T03:42:48.869Z,6.97
2022-11-24T03:45:44.122Z,11.20
2022-11-24T03:48:04.536Z,10.27
2022-11-24T03:50:31.254Z,7.75
2022-11-24T03:52:58.068Z,8.77
2022-11-24T03:55:24.878Z,8.25
2022-11-24T03:57:51.781Z,10.20
2022-11-24T04:00:18.842Z,8.45
2022-11-24T04:02:45.650Z,12.73
2022-11-24T04:05:12.534Z,10.27
2022-11-24T04:07:39.417Z,13.82
2022-11-24T04:10:06.983Z,6.13
2022-11-24T04:12:46.032Z,9.23
2022-11-24T04:15:15.654Z,7.63
2022-11-24T04:17:42.917Z,15.40
2022-11-24T04:20:10.464Z,12.15
2022-11-24T04:22:37.184Z,7.43
2022-11-24T04:25:04.813Z,9.48
2022-11-24T04:27:35.245Z,8.57
2022-11-24T04:30:02.251Z,13.18
2022-11-24T04:32:29.522Z,7.03
2022-11-24T04:34:56.375Z,5.75
2022-11-24T04:37:23.073Z,5.38
2022-11-24T04:39:49.910Z,7.70
2022-11-24T04:42:16.612Z,7.38
2022-11-24T04:44:43.321Z,6.55
2022-11-24T04:47:15.723Z,7.40
2022-11-24T04:49:42.491Z,4.60
2022-11-24T04:52:09.193Z,8.60
2022-11-24T04:54:36.159Z,6.18
2022-11-24T04:57:03.020Z,11.13
2022-11-24T04:59:30.146Z,7.57
2022-11-24T05:01:56.864Z,5.57
2022-11-24T05:04:23.748Z,10.98
2022-11-24T05:06:50.457Z,7.18
2022-11-24T05:09:17.918Z,11.88
2022-11-24T05:11:44.683Z,10.38
2022-11-24T05:14:11.422Z,4.13
2022-11-24T05:16:38.204Z,7.00
2022-11-24T05:19:05.006Z,7.85
2022-11-24T05:21:31.766Z,14.50
2022-11-24T05:23:58.561Z,10.40
2022-11-24T05:26:26.803Z,8.65
2022-11-24T05:28:53.791Z,18.42
2022-11-24T05:31:20.544Z,11.90
2022-11-24T05:33:47.521Z,6.75
2022-11-24T05:36:34.183Z,6.28
2022-11-24T05:39:01.401Z,7.90
2022-11-24T05:41:28.129Z,7.35
2022-11-24T05:43:54.930Z,8.20
2022-11-24T05:46:21.729Z,8.13
2022-11-24T05:48:48.749Z,13.10
2022-11-24T05:51:15.441Z,4.63
2022-11-24T05:53:42.243Z,7.35
2022-11-24T05:56:09.048Z,9.65
2022-11-24T05:58:35.823Z,10.23
2022-11-24T06:01:06.405Z,4.35
2022-11-24T06:03:33.337Z,6.25
2022-11-24T06:06:00.110Z,4.13
2022-11-24T06:08:30.840Z,3.88
2022-11-24T06:11:17.613Z,6.22
2022-11-24T06:13:45.632Z,4.78
2022-11-24T06:16:12.884Z,6.32
2022-11-24T06:18:39.758Z,6.28
2022-11-24T06:21:11.465Z,6.38
2022-11-24T06:23:39.414Z,6.03
2022-11-24T06:26:06.790Z,6.18
2022-11-24T06:28:33.593Z,5.40
2022-11-24T06:31:04.223Z,7.05
2022-11-24T06:36:04.641Z,6.53
2022-11-24T06:38:32.207Z,3.45
2022-11-24T06:41:03.640Z,4.07
2022-11-24T06:43:31.083Z,4.28
2022-11-24T06:45:58.370Z,4.85
2022-11-24T06:48:26.147Z,5.72
2022-11-24T06:50:53.511Z,4.90
2022-11-24T06:53:20.542Z,3.08
2022-11-24T06:55:47.418Z,3.78
2022-11-24T06:58:14.172Z,5.40
2022-11-24T07:00:41.078Z,5.90
2022-11-24T07:03:08.965Z,4.82
2022-11-24T07:05:35.708Z,5.72
2022-11-24T07:08:02.549Z,4.00
2022-11-24T07:10:29.355Z,2.90
2022-11-24T07:12:56.099Z,4.68
2022-11-24T07:15:22.877Z,4.07
2022-11-24T07:17:49.631Z,7.05
2022-11-24T07:20:16.819Z,5.68
2022-11-24T07:22:43.604Z,2.75
2022-11-24T07:25:10.996Z,3.95
2022-11-24T07:27:37.810Z,6.55
2022-11-24T07:30:05.050Z,5.70
2022-11-24T07:32:31.848Z,3.13
2022-11-24T07:34:58.731Z,4.47
2022-11-24T07:37:31.014Z,6.53
2022-11-24T07:39:58.452Z,7.03
2022-11-24T07:42:25.122Z,6.20
2022-11-24T07:44:51.900Z,5.45
2022-11-24T07:47:18.639Z,6.50
2022-11-24T07:49:45.516Z,4.93
2022-11-24T07:52:12.259Z,6.07
2022-11-24T07:54:38.987Z,3.22
2022-11-24T07:57:05.708Z,4.30
2022-11-24T07:59:32.572Z,4.13
2022-11-24T08:01:59.331Z,3.70
2022-11-24T08:04:26.078Z,1.90
2022-11-24T08:06:52.804Z,3.67
2022-11-24T08:09:19.682Z,4.45
2022-11-24T08:11:46.419Z,6.95
2022-11-24T08:14:13.225Z,6.80
2022-11-24T08:16:40.081Z,3.88
2022-11-24T08:19:06.938Z,2.60
2022-11-24T08:21:33.799Z,5.63
2022-11-24T08:24:00.710Z,4.72
2022-11-24T08:26:27.590Z,5.70
2022-11-24T08:28:56.756Z,2.58
2022-11-24T08:31:24.988Z,6.07
2022-11-24T08:33:51.820Z,4.00
2022-11-24T08:36:19.391Z,2.58
2022-11-24T08:38:47.310Z,3.00
2022-11-24T08:41:16.118Z,5.00
2022-11-24T08:43:43.333Z,6.88
2022-11-24T08:46:12.689Z,5.15
2022-11-24T08:48:39.652Z,6.75
2022-11-24T08:51:09.424Z,3.97
2022-11-24T08:53:36.506Z,6.75
2022-11-24T08:56:05.147Z,3.55
2022-11-24T08:58:32.535Z,3.28
2022-11-24T09:01:14.167Z,4.97
2022-11-24T09:03:48.255Z,4.70
2022-11-24T09:06:25.241Z,4.00
2022-11-24T09:08:54.095Z,3.63
2022-11-24T09:11:20.823Z,4.35
2022-11-24T09:13:47.713Z,3.10
2022-11-24T09:16:17.219Z,6.50
2022-11-24T09:18:44.759Z,3.25
2022-11-24T09:21:12.854Z,5.25
2022-11-24T09:23:40.598Z,4.30
2022-11-24T09:26:09.256Z,6.13
2022-11-24T09:28:36.236Z,2.30
2022-11-24T09:31:04.652Z,3.92
2022-11-24T09:33:32.263Z,3.95
2022-11-24T09:35:59.612Z,5.90
2022-11-24T09:38:26.649Z,4.82
2022-11-24T09:40:55.869Z,7.18
2022-11-24T09:43:37.527Z,5.95
2022-11-24T09:46:09.258Z,6.57
2022-11-24T09:48:47.336Z,6.07
2022-11-24T09:51:15.334Z,7.38
2022-11-24T09:53:53.824Z,5.68
2022-11-24T09:56:26.552Z,6.78
2022-11-24T09:59:06.645Z,6.35
2022-11-24T10:01:37.013Z,6.30
2022-11-24T10:04:06.636Z,7.60
2022-11-24T10:06:46.056Z,6.88
2022-11-24T10:09:47.233Z,5.80
2022-11-24T10:12:41.429Z,6.75
2022-11-24T10:15:18.917Z,7.15
2022-11-24T10:18:21.264Z,5.57
2022-11-24T10:21:12.806Z,6.85
2022-11-24T10:23:46.303Z,6.10
2022-11-24T10:26:26.984Z,5.72
2022-11-24T10:28:55.499Z,7.60
2022-11-24T10:31:23.992Z,7.03
2022-11-24T10:33:51.100Z,7.75
2022-11-24T10:36:32.290Z,4.32
2022-11-24T10:39:05.032Z,7.75
2022-11-24T10:41:52.177Z,4.75
2022-11-24T10:44:18.962Z,8.07
2022-11-24T10:46:45.871Z,6.28
2022-11-24T10:49:19.998Z,5.65
2022-11-24T10:51:54.678Z,6.20
2022-11-24T10:54:23.561Z,17.02
2022-11-24T10:56:52.335Z,13.05
2022-11-24T10:59:24.923Z,11.18
2022-11-24T11:01:52.665Z,11.07
2022-11-24T11:04:28.176Z,12.43
2022-11-24T11:07:27.710Z,9.18
2022-11-24T11:10:33.085Z,11.23
2022-11-24T11:12:59.882Z,19.27
2022-11-24T11:15:30.349Z,12.48
2022-11-24T11:17:59.022Z,8.98
2022-11-24T11:20:28.261Z,19.63
2022-11-24T11:22:56.207Z,11.90
2022-11-24T11:25:41.273Z,14.93
2022-11-24T11:28:29.675Z,9.93
2022-11-24T11:31:22.162Z,12.73
2022-11-24T11:34:08.273Z,10.32
2022-11-24T11:36:53.175Z,20.63
2022-11-24T11:43:01.189Z,11.40
2022-11-24T11:45:30.148Z,19.52
2022-11-24T11:48:03.327Z,18.25
2022-11-24T11:51:06.765Z,16.42
2022-11-24T11:54:09.053Z,13.70
2022-11-24T11:56:47.159Z,14.52
2022-11-24T11:59:16.730Z,13.10
2022-11-24T12:02:24.966Z,22.65
2022-11-24T12:04:59.688Z,24.48
2022-11-24T12:07:41.707Z,19.80
2022-11-24T12:10:14.660Z,24.85
2022-11-24T12:13:04.319Z,13.70
2022-11-24T12:15:47.700Z,14.20
2022-11-24T12:18:58.799Z,17.80
2022-11-24T12:24:19.336Z,22.30
2022-11-24T12:26:59.247Z,14.93
2022-11-24T12:29:34.393Z,21.20
2022-11-24T12:32:31.171Z,15.30
2022-11-24T12:35:15.648Z,23.83
2022-11-24T12:38:07.193Z,25.45
2022-11-24T12:41:18.088Z,18.50
2022-11-24T12:43:50.769Z,16.35
2022-11-24T12:46:39.478Z,25.67
2022-11-24T12:49:18.932Z,13.25
2022-11-24T12:51:49.399Z,19.85
2022-11-24T12:54:19.055Z,19.25
2022-11-24T12:57:23.867Z,21.05
2022-11-24T13:00:19.691Z,14.70
2022-11-24T13:02:51.843Z,17.65
2022-11-24T13:05:48.199Z,24.88
2022-11-24T13:08:16.009Z,24.05
2022-11-24T13:10:58.362Z,22.60
2022-11-24T13:13:50.049Z,19.23
2022-11-24T13:19:12.654Z,24.80
2022-11-24T13:21:51.102Z,23.73
2022-11-24T13:24:19.095Z,21.70
2022-11-24T13:26:52.845Z,30.48
2022-11-24T13:29:28.828Z,34.80
2022-11-24T13:32:17.703Z,32.60
2022-11-24T13:34:45.791Z,26.30
2022-11-24T13:37:31.542Z,22.55
2022-11-24T13:40:22.991Z,32.47
2022-11-24T13:43:00.482Z,23.52
2022-11-24T13:45:40.322Z,26.17
2022-11-24T13:48:19.835Z,25.88
2022-11-24T13:50:50.007Z,27.60
2022-11-24T13:53:42.668Z,23.75
2022-11-24T13:56:12.430Z,26.88
2022-11-24T13:58:40.860Z,23.02
2022-11-24T14:01:28.807Z,23.35
2022-11-24T14:04:30.651Z,31.83
2022-11-24T14:07:07.873Z,31.10
2022-11-24T14:09:50.491Z,27.48
2022-11-24T14:12:23.881Z,23.73
2022-11-24T14:14:57.210Z,27.90
2022-11-24T14:17:24.011Z,25.58
2022-11-24T14:19:55.242Z,32.33
2022-11-24T14:22:26.812Z,34.78
2022-11-24T14:25:01.302Z,30.30
2022-11-24T14:27:34.641Z,29.67
2022-11-24T14:30:13.653Z,24.92
2022-11-24T14:32:40.778Z,35.53
2022-11-24T14:35:31.798Z,33.30
2022-11-24T14:38:01.366Z,42.33
2022-11-24T14:40:51.365Z,48.25
2022-11-24T14:43:30.995Z,43.40
2022-11-24T14:46:04.896Z,37.00
2022-11-24T14:48:34.129Z,41.30
2022-11-24T14:51:15.620Z,34.05
2022-11-24T14:53:44.181Z,32.47
2022-11-24T14:56:26.031Z,29.90
2022-11-24T14:58:54.280Z,27.02
2022-11-24T15:01:32.862Z,28.73
2022-11-24T15:04:39.308Z,34.97
2022-11-24T15:07:11.655Z,31.55
2022-11-24T15:09:43.133Z,21.80
2022-11-24T15:12:28.871Z,36.83
2022-11-24T15:15:07.852Z,31.95
2022-11-24T15:17:34.825Z,26.13
2022-11-24T15:20:09.302Z,26.67
2022-11-24T15:22:41.249Z,20.77
2022-11-24T15:25:25.810Z,26.50
2022-11-24T15:27:52.859Z,30.10
2022-11-24T15:30:19.611Z,27.52
2022-11-24T15:32:52.182Z,27.60
2022-11-24T15:35:23.962Z,23.33
2022-11-24T15:37:54.026Z,27.30
2022-11-24T15:40:22.375Z,30.93
2022-11-24T15:42:54.221Z,27.10
2022-11-24T15:45:24.427Z,31.55
2022-11-24T15:47:51.712Z,28.80
2022-11-24T15:50:19.257Z,31.10
2022-11-24T15:52:46.745Z,21.40
2022-11-24T15:55:19.166Z,24.48
2022-11-24T15:57:46.308Z,29.77
2022-11-24T16:00:20.965Z,28.50
2022-11-24T16:02:48.081Z,24.23
2022-11-24T16:05:15.923Z,23.33
2022-11-24T16:07:42.971Z,25.92
2022-11-24T16:10:30.582Z,22.20
2022-11-24T16:12:57.463Z,27.92
2022-11-24T16:15:24.238Z,28.85
2022-11-24T16:17:51.381Z,32.28
2022-11-24T16:20:18.289Z,21.67
2022-11-24T16:22:45.288Z,28.80
2022-11-24T16:25:12.470Z,28.58
2022-11-24T16:27:39.329Z,17.27
2022-11-24T16:30:07.036Z,22.20
2022-11-24T16:32:34.007Z,20.88
2022-11-24T16:35:00.846Z,23.88
2022-11-24T16:37:27.606Z,14.82
2022-11-24T16:39:54.393Z,15.55
2022-11-24T16:42:21.165Z,17.60
2022-11-24T16:44:49.572Z,21.52
2022-11-24T16:47:16.743Z,24.42
2022-11-24T16:49:43.496Z,18.95
2022-11-24T16:52:10.392Z,18.50
2022-11-24T16:54:37.231Z,18.23
2022-11-24T16:57:04.224Z,17.30
2022-11-24T16:59:31.001Z,25.02
2022-11-24T17:01:58.792Z,21.77
2022-11-24T17:04:25.806Z,17.20
2022-11-24T17:06:52.674Z,17.73
2022-11-24T17:09:19.405Z,17.00
2022-11-24T17:11:46.242Z,20.33
2022-11-24T17:14:13.276Z,24.98
2022-11-24T17:16:40.652Z,16.75
2022-11-24T17:19:07.544Z,24.23
2022-11-24T17:21:34.450Z,20.50
2022-11-24T17:24:05.508Z,17.40
2022-11-24T17:26:33.004Z,14.18
2022-11-24T17:28:59.768Z,14.13
2022-11-24T17:31:29.048Z,16.42
2022-11-24T17:33:57.576Z,19.13
2022-11-24T17:36:24.599Z,20.10
2022-11-24T17:38:51.852Z,19.23
2022-11-24T17:41:20.168Z,13.80
2022-11-24T17:43:51.084Z,16.67
2022-11-24T17:46:18.286Z,17.35
2022-11-24T17:48:45.531Z,24.30
2022-11-24T17:51:17.097Z,25.70
2022-11-24T17:53:45.503Z,26.85
2022-11-24T17:56:18.349Z,14.98
2022-11-24T17:58:45.415Z,24.45
2022-11-24T18:01:13.387Z,29.33
2022-11-24T18:03:41.284Z,21.20
2022-11-24T18:06:13.163Z,25.83
2022-11-24T18:08:41.864Z,23.92
2022-11-24T18:11:11.204Z,27.27
2022-11-24T18:13:56.633Z,21.38
2022-11-24T18:16:28.018Z,14.40
2022-11-24T18:19:08.370Z,19.20
2022-11-24T18:21:37.990Z,18.80
2022-11-24T18:24:05.036Z,17.83
2022-11-24T18:26:31.927Z,22.35
2022-11-24T18:28:58.645Z,13.02
2022-11-24T18:31:26.375Z,11.10
2022-11-24T18:33:53.372Z,16.77
2022-11-24T18:36:30.034Z,18.02
2022-11-24T18:39:00.370Z,23.33
2022-11-24T18:41:28.605Z,16.48
2022-11-24T18:46:25.246Z,15.48
2022-11-24T18:48:53.286Z,13.57
2022-11-24T18:51:20.165Z,13.65
2022-11-24T18:53:51.851Z,14.40
2022-11-24T18:56:19.107Z,19.38
2022-11-24T18:58:46.353Z,17.30
2022-11-24T19:01:16.033Z,12.13
2022-11-24T19:03:49.035Z,17.10
2022-11-24T19:06:17.708Z,18.05
2022-11-24T19:08:45.243Z,16.05
2022-11-24T19:11:23.719Z,12.00
2022-11-24T19:13:51.304Z,15.07
2022-11-24T19:16:19.553Z,15.52
2022-11-24T19:18:53.978Z,13.00
2022-11-24T19:21:22.028Z,10.82
2022-11-24T19:23:50.041Z,22.15
2022-11-24T19:26:16.895Z,14.35
2022-11-24T19:28:44.505Z,16.63
2022-11-24T19:31:13.140Z,11.70
2022-11-24T19:33:40.529Z,19.90
2022-11-24T19:36:18.382Z,14.88
2022-11-24T19:38:56.110Z,8.63
2022-11-24T19:41:27.793Z,12.02
2022-11-24T19:43:55.004Z,11.68
2022-11-24T19:46:23.439Z,14.85
2022-11-24T19:48:54.248Z,8.70
2022-11-24T19:51:24.249Z,17.98
2022-11-24T19:53:51.277Z,14.27
2022-11-24T19:56:26.279Z,15.32
2022-11-24T19:58:54.485Z,13.13
2022-11-24T20:01:24.773Z,8.57
2022-11-24T20:03:59.042Z,12.93
2022-11-24T20:06:31.530Z,15.18
2022-11-24T20:09:00.467Z,10.60
2022-11-24T20:11:28.406Z,14.02
2022-11-24T20:13:55.341Z,10.10
2022-11-24T20:16:28.263Z,14.32
2022-11-24T20:19:21.463Z,13.70
2022-11-24T20:21:50.066Z,13.23
2022-11-24T20:24:23.373Z,11.07
2022-11-24T20:26:56.457Z,8.60
2022-11-24T20:29:23.339Z,9.18
2022-11-24T20:31:53.451Z,15.40
2022-11-24T20:34:21.038Z,17.70
2022-11-24T20:36:48.550Z,14.57
2022-11-24T20:39:18.638Z,12.85
2022-11-24T20:41:45.896Z,17.50
2022-11-24T20:44:15.704Z,13.57
2022-11-24T20:46:43.819Z,12.68
2022-11-24T20:49:16.176Z,12.38
2022-11-24T20:51:49.646Z,12.98
2022-11-24T20:54:18.247Z,15.43
2022-11-24T20:56:46.576Z,10.27
2022-11-24T20:59:16.405Z,8.93
2022-11-24T21:01:45.644Z,12.98
2022-11-24T21:04:15.564Z,11.38
2022-11-24T21:06:42.462Z,11.65
2022-11-24T21:09:09.691Z,14.43
2022-11-24T21:11:38.938Z,13.93
2022-11-24T21:14:06.176Z,11.43
2022-11-24T21:16:35.356Z,14.68
2022-11-24T21:19:05.315Z,12.82
2022-11-24T21:21:34.719Z,14.10
2022-11-24T21:24:07.306Z,13.85
2022-11-24T21:26:38.218Z,16.55
2022-11-24T21:29:05.978Z,9.65
2022-11-24T21:31:36.858Z,21.75
2022-11-24T21:36:31.709Z,16.73
2022-11-24T21:38:59.180Z,17.73
2022-11-24T21:41:28.590Z,18.45
2022-11-24T21:43:56.031Z,14.80
2022-11-24T21:46:23.272Z,13.57
2022-11-24T21:48:50.366Z,17.23
2022-11-24T21:51:19.320Z,15.45
2022-11-24T21:53:47.107Z,13.93
2022-11-24T21:56:19.307Z,15.02
2022-11-24T21:58:52.722Z,10.90
2022-11-24T22:01:22.060Z,10.30
2022-11-24T22:03:48.930Z,14.15
2022-11-24T22:06:17.813Z,15.05
2022-11-24T22:08:45.116Z,12.88
2022-11-24T22:11:13.863Z,12.07
2022-11-24T22:13:41.759Z,9.88
2022-11-24T22:16:11.147Z,8.85
2022-11-24T22:18:40.091Z,8.95
2022-11-24T22:21:08.351Z,11.80
2022-11-24T22:23:36.013Z,8.73
2022-11-24T22:26:14.475Z,10.48
2022-11-24T22:28:41.814Z,10.18
2022-11-24T22:31:20.461Z,7.88
2022-11-24T22:33:47.984Z,9.20
2022-11-24T22:36:16.104Z,11.32
2022-11-24T22:38:43.308Z,8.45
2022-11-24T22:41:15.277Z,6.60
2022-11-24T22:43:43.121Z,7.45
2022-11-24T22:46:12.193Z,9.75
2022-11-24T22:48:39.541Z,6.93
2022-11-24T22:51:08.796Z,9.82
2022-11-24T22:53:35.754Z,5.53
2022-11-24T22:56:04.455Z,6.75
2022-11-24T22:58:33.045Z,7.88
2022-11-24T23:01:08.931Z,10.32
2022-11-24T23:03:36.575Z,7.22
2022-11-24T23:06:05.474Z,9.13
2022-11-24T23:08:34.010Z,5.63
2022-11-24T23:11:06.538Z,6.88
2022-11-24T23:13:33.621Z,9.60
2022-11-24T23:16:09.343Z,15.30
2022-11-24T23:18:37.932Z,9.95
2022-11-24T23:21:15.340Z,9.90
2022-11-24T23:23:42.658Z,5.50
2022-11-24T23:26:11.921Z,5.25
2022-11-24T23:28:39.013Z,13.80
2022-11-24T23:31:10.061Z,14.32
2022-11-24T23:33:37.555Z,12.57
2022-11-24T23:36:09.242Z,9.05
2022-11-24T23:38:36.503Z,10.95
2022-11-24T23:41:05.559Z,16.63
2022-11-24T23:43:33.396Z,12.98
2022-11-24T23:46:04.149Z,11.38
2022-11-24T23:48:31.695Z,16.33
2022-11-24T23:51:06.141Z,13.75
2022-11-24T23:53:33.737Z,8.25
2022-11-24T23:56:00.524Z,10.25
2022-11-24T23:58:27.978Z,11.68
